Time;durP1;ratioP1;P1;durP2;ratioP2;P2;SDS_P1;SDS_P2;PMS_P1;PMS_P2;Temp;Humidity;BMP_temperature;BMP_pressure;BME280_temperature;BME280_humidity;BME280_pressure;Samples;Min_cycle;Max_cycle;Signal;HPM_P1;HPM_P2
2023/02/11 00:00:44;;;;;;;18.05;7.20;;;6.50;99.90;;;;;;5036999;28;20307;-79
2023/02/11 00:03:11;;;;;;;7.80;4.00;;;6.50;99.90;;;;;;5036103;28;20205;-79
2023/02/11 00:05:39;;;;;;;3.80;3.60;;;6.50;99.90;;;;;;5035825;28;20192;-78
2023/02/11 00:08:06;;;;;;;6.78;2.70;;;6.50;99.90;;;;;;5036617;28;20263;-79
2023/02/11 00:10:33;;;;;;;7.35;4.13;;;6.50;99.90;;;;;;5036301;28;20226;-79
2023/02/11 00:13:00;;;;;;;11.93;7.47;;;6.40;99.90;;;;;;5036295;28;20691;-80
2023/02/11 00:15:27;;;;;;;3.38;1.73;;;6.40;99.90;;;;;;5035741;28;20247;-79
2023/02/11 00:17:53;;;;;;;14.77;7.43;;;6.40;99.90;;;;;;5036273;28;20217;-79
2023/02/11 00:20:20;;;;;;;5.85;4.20;;;6.50;99.90;;;;;;5035093;28;20302;-79
2023/02/11 00:22:48;;;;;;;0.60;0.60;;;6.50;99.90;;;;;;5033889;28;20258;-79
2023/02/11 00:25:15;;;;;;;2.75;2.15;;;6.50;99.90;;;;;;5035745;28;20217;-79
2023/02/11 00:27:42;;;;;;;6.03;5.00;;;6.50;99.90;;;;;;5035379;28;20222;-79
2023/02/11 00:30:11;;;;;;;1.08;1.08;;;6.50;99.90;;;;;;5035467;28;20223;-79
2023/02/11 00:32:37;;;;;;;6.38;3.80;;;6.50;99.90;;;;;;5036744;28;20592;-80
2023/02/11 00:35:05;;;;;;;2.45;2.25;;;6.50;99.90;;;;;;5037577;28;20219;-80
2023/02/11 00:37:35;;;;;;;7.55;6.10;;;6.50;99.90;;;;;;5038982;28;20282;-79
2023/02/11 00:40:03;;;;;;;3.10;2.80;;;6.50;99.90;;;;;;5038974;28;20712;-76
2023/02/11 00:42:30;;;;;;;2.35;2.15;;;6.60;99.90;;;;;;5040258;28;20202;-78
2023/02/11 00:44:57;;;;;;;2.58;2.42;;;6.60;99.90;;;;;;5041271;28;20644;-79
2023/02/11 00:47:24;;;;;;;8.93;3.88;;;6.60;99.90;;;;;;5039486;28;20295;-79
2023/02/11 00:49:50;;;;;;;1.20;1.08;;;6.60;99.90;;;;;;5040690;28;20238;-79
2023/02/11 00:52:17;;;;;;;27.92;10.40;;;6.60;99.90;;;;;;5040222;28;20207;-78
2023/02/11 00:54:44;;;;;;;5.35;4.55;;;6.60;99.90;;;;;;5039457;28;20195;-79
2023/02/11 00:57:12;;;;;;;5.78;5.28;;;6.60;99.90;;;;;;5038293;28;20747;-79
2023/02/11 00:59:39;;;;;;;10.70;4.90;;;6.60;99.90;;;;;;5039357;28;20705;-79
2023/02/11 01:02:06;;;;;;;3.22;2.70;;;6.60;99.90;;;;;;5040435;28;20207;-77
2023/02/11 01:04:33;;;;;;;17.40;4.18;;;6.60;99.90;;;;;;5039570;28;20278;-78
2023/02/11 01:07:00;;;;;;;1.33;1.27;;;6.60;99.90;;;;;;5039889;28;20278;-78
2023/02/11 01:09:27;;;;;;;7.07;1.95;;;6.60;99.90;;;;;;5039379;28;20307;-79
2023/02/11 01:11:54;;;;;;;6.28;2.35;;;6.60;99.90;;;;;;5039662;28;20286;-78
2023/02/11 01:14:22;;;;;;;1.95;1.60;;;6.60;99.90;;;;;;5039802;28;20640;-78
2023/02/11 01:16:49;;;;;;;3.70;2.63;;;6.60;99.90;;;;;;5040654;28;20282;-78
2023/02/11 01:19:16;;;;;;;7.60;4.40;;;6.60;99.90;;;;;;5040040;28;20665;-79
2023/02/11 01:21:43;;;;;;;10.88;1.70;;;6.70;99.90;;;;;;5038968;28;20619;-79
2023/02/11 01:24:09;;;;;;;13.82;9.38;;;6.60;99.90;;;;;;5039829;28;20196;-76
2023/02/11 01:26:36;;;;;;;4.63;3.60;;;6.60;99.90;;;;;;5039515;28;20201;-78
2023/02/11 01:29:04;;;;;;;6.10;5.60;;;6.70;99.90;;;;;;5038099;28;20199;-78
2023/02/11 01:31:32;;;;;;;10.65;3.60;;;6.70;99.90;;;;;;5038877;28;20210;-78
2023/02/11 01:33:59;;;;;;;1.52;1.50;;;6.70;99.90;;;;;;5038200;28;20283;-79
2023/02/11 01:36:25;;;;;;;5.28;4.18;;;6.70;99.90;;;;;;5038567;28;20250;-78
2023/02/11 01:38:52;;;;;;;0.50;0.40;;;6.70;99.90;;;;;;5038515;28;20259;-80
2023/02/11 01:41:19;;;;;;;8.93;1.98;;;6.70;99.90;;;;;;5039415;28;20225;-78
2023/02/11 01:43:49;;;;;;;4.30;3.72;;;6.70;99.90;;;;;;5038707;28;20246;-79
2023/02/11 01:46:36;;;;;;;4.72;4.32;;;6.60;99.90;;;;;;5038169;28;20199;-78
2023/02/11 01:49:06;;;;;;;6.15;5.35;;;6.70;99.90;;;;;;5038086;28;20183;-77
2023/02/11 01:51:37;;;;;;;4.25;3.85;;;6.60;99.90;;;;;;5037119;28;20201;-79
2023/02/11 01:59:44;;;;;;;1.92;1.35;;;6.70;99.90;;;;;;5033551;28;20207;-79
2023/02/11 02:02:16;;;;;;;6.63;2.95;;;6.60;99.90;;;;;;5037916;28;20258;-79
2023/02/11 02:04:49;;;;;;;2.35;1.77;;;6.60;99.90;;;;;;5037119;28;20278;-78
2023/02/11 02:07:22;;;;;;;2.45;2.25;;;6.50;99.90;;;;;;5037865;28;20262;-77
2023/02/11 02:09:55;;;;;;;11.23;3.45;;;6.50;99.90;;;;;;5038350;28;20304;-79
2023/02/11 02:12:22;;;;;;;6.20;4.80;;;6.50;99.90;;;;;;5038559;28;20724;-77
2023/02/11 02:14:49;;;;;;;4.00;3.67;;;6.50;99.90;;;;;;5037814;28;20203;-79
2023/02/11 02:17:28;;;;;;;3.45;2.50;;;6.50;99.90;;;;;;5037012;28;20712;-79
2023/02/11 02:20:27;;;;;;;6.18;3.50;;;6.50;99.90;;;;;;5036630;28;20273;-78
2023/02/11 02:23:17;;;;;;;4.95;1.38;;;6.50;99.90;;;;;;5036156;28;20195;-78
2023/02/11 02:26:07;;;;;;;3.35;3.15;;;6.40;99.90;;;;;;5028677;28;20187;-79
2023/02/11 02:29:00;;;;;;;2.67;2.58;;;6.40;99.90;;;;;;5033760;28;20231;-79
2023/02/11 02:31:45;;;;;;;2.35;2.13;;;6.40;99.90;;;;;;5025670;28;20255;-79
2023/02/11 02:34:19;;;;;;;6.97;4.38;;;6.40;99.90;;;;;;5038146;28;20183;-76
2023/02/11 02:36:55;;;;;;;3.67;3.47;;;6.40;99.90;;;;;;5034850;28;20408;-78
2023/02/11 02:39:28;;;;;;;5.40;4.82;;;6.40;99.90;;;;;;5034758;28;20250;-79
2023/02/11 02:41:56;;;;;;;5.70;4.07;;;6.40;99.90;;;;;;5035083;28;20263;-78
2023/02/11 02:44:23;;;;;;;1.80;1.00;;;6.40;99.90;;;;;;5035375;28;20673;-77
2023/02/11 02:46:50;;;;;;;4.30;3.90;;;6.40;99.90;;;;;;5036098;28;20219;-78
2023/02/11 02:49:18;;;;;;;1.90;1.73;;;6.40;99.90;;;;;;5034912;28;20196;-77
2023/02/11 02:52:16;;;;;;;2.35;1.95;;;6.40;99.90;;;;;;5035012;28;20282;-78
2023/02/11 02:55:12;;;;;;;3.53;3.20;;;6.40;99.90;;;;;;5034732;28;20190;-78
2023/02/11 02:57:49;;;;;;;8.57;3.85;;;6.40;99.90;;;;;;5034137;28;20306;-78
2023/02/11 03:00:24;;;;;;;11.32;5.65;;;6.40;99.90;;;;;;5033965;28;20620;-79
2023/02/11 03:03:03;;;;;;;5.05;4.60;;;6.30;99.90;;;;;;5035002;28;20205;-79
2023/02/11 03:05:44;;;;;;;4.63;3.13;;;6.30;99.90;;;;;;5037295;28;20206;-77
2023/02/11 03:08:17;;;;;;;10.88;6.47;;;6.30;99.90;;;;;;5040855;28;20203;-78
2023/02/11 03:10:47;;;;;;;2.83;2.58;;;6.30;99.90;;;;;;5036826;28;20215;-80
2023/02/11 03:13:16;;;;;;;2.30;2.15;;;6.20;99.90;;;;;;5037119;28;20209;-79
2023/02/11 03:15:45;;;;;;;0.77;0.73;;;6.20;99.90;;;;;;5034699;28;20562;-79
2023/02/11 03:18:15;;;;;;;3.88;3.67;;;6.20;99.90;;;;;;5036238;28;20741;-78
2023/02/11 03:20:47;;;;;;;34.60;5.28;;;6.20;99.90;;;;;;5037170;28;20256;-78
2023/02/11 03:23:20;;;;;;;7.00;3.22;;;6.20;99.90;;;;;;5037522;28;20237;-79
2023/02/11 03:25:53;;;;;;;10.15;5.80;;;6.20;99.90;;;;;;5036825;28;20262;-79
2023/02/11 03:28:27;;;;;;;4.45;4.10;;;6.20;99.90;;;;;;5037453;28;20283;-79
2023/02/11 03:31:02;;;;;;;7.15;3.50;;;6.20;99.90;;;;;;5052304;22;20219;-77
2023/02/11 03:33:35;;;;;;;7.07;4.40;;;6.20;99.90;;;;;;5034481;28;20273;-77
2023/02/11 03:36:07;;;;;;;1.83;1.73;;;6.20;99.90;;;;;;5045702;28;20564;-77
2023/02/11 03:38:43;;;;;;;6.57;5.97;;;6.20;99.90;;;;;;5051041;28;20222;-77
2023/02/11 03:41:13;;;;;;;16.73;10.75;;;6.20;99.90;;;;;;5051128;28;20218;-79
2023/02/11 03:43:44;;;;;;;2.72;2.58;;;6.20;99.90;;;;;;5051524;28;20626;-77
2023/02/11 03:46:13;;;;;;;17.17;6.90;;;6.20;99.90;;;;;;5051290;28;20191;-78
2023/02/11 03:48:43;;;;;;;5.38;4.85;;;6.20;99.90;;;;;;5051521;28;20204;-76
2023/02/11 03:51:12;;;;;;;3.45;1.20;;;6.20;99.90;;;;;;5051661;28;20278;-77
2023/02/11 03:53:43;;;;;;;1.63;1.52;;;6.20;99.90;;;;;;5051086;28;20286;-77
2023/02/11 03:56:15;;;;;;;5.53;3.47;;;6.10;99.90;;;;;;5051204;28;20219;-77
2023/02/11 03:58:44;;;;;;;3.90;3.70;;;6.10;99.90;;;;;;5051612;28;20262;-76
2023/02/11 04:01:11;;;;;;;3.30;3.05;;;6.10;99.90;;;;;;5051549;28;20738;-76
2023/02/11 04:03:38;;;;;;;8.35;6.47;;;6.00;99.90;;;;;;5051241;28;20240;-73
2023/02/11 04:06:05;;;;;;;1.50;1.20;;;5.90;99.90;;;;;;5050839;28;20283;-76
2023/02/11 04:08:34;;;;;;;1.15;0.77;;;5.90;99.90;;;;;;5051034;28;20325;-75
2023/02/11 04:11:01;;;;;;;9.63;3.17;;;5.90;99.90;;;;;;5051097;28;20650;-76
2023/02/11 04:13:27;;;;;;;3.78;3.47;;;5.90;99.90;;;;;;5055077;28;20285;-76
2023/02/11 04:15:54;;;;;;;0.50;0.40;;;5.90;99.90;;;;;;5055087;28;20199;-76
2023/02/11 04:18:21;;;;;;;1.20;1.20;;;5.90;99.90;;;;;;5054970;28;20285;-75
2023/02/11 04:20:50;;;;;;;12.55;8.73;;;5.90;99.90;;;;;;5054822;28;20225;-75
2023/02/11 04:23:17;;;;;;;2.22;2.08;;;5.90;99.90;;;;;;5055030;28;20195;-76
2023/02/11 04:25:45;;;;;;;1.30;1.02;;;5.80;99.90;;;;;;5054682;28;20218;-75
2023/02/11 04:28:12;;;;;;;1.02;1.02;;;5.80;99.90;;;;;;5054588;28;20222;-77
2023/02/11 04:30:39;;;;;;;6.25;4.00;;;5.90;99.90;;;;;;5053978;28;20291;-76
2023/02/11 04:33:05;;;;;;;5.18;3.60;;;5.90;99.90;;;;;;5055083;28;20301;-77
2023/02/11 04:35:32;;;;;;;9.70;5.93;;;5.90;99.90;;;;;;5054068;28;20632;-76
2023/02/11 04:37:59;;;;;;;1.75;1.13;;;5.90;99.90;;;;;;5055053;28;20651;-76
2023/02/11 04:40:26;;;;;;;9.13;3.80;;;5.90;99.90;;;;;;5054454;28;20195;-76
2023/02/11 04:42:54;;;;;;;3.38;3.10;;;5.90;99.90;;;;;;5054697;28;20201;-77
2023/02/11 04:45:21;;;;;;;6.57;2.90;;;5.90;99.90;;;;;;5054345;28;20616;-77
2023/02/11 04:47:48;;;;;;;1.60;1.15;;;5.90;99.90;;;;;;5054579;28;20201;-76
2023/02/11 04:50:15;;;;;;;0.70;0.70;;;5.90;99.90;;;;;;5054464;28;20194;-77
2023/02/11 04:52:41;;;;;;;9.57;5.07;;;5.90;99.90;;;;;;5054702;28;20211;-77
2023/02/11 04:55:08;;;;;;;10.35;3.92;;;5.90;99.90;;;;;;5054592;28;20651;-76
2023/02/11 04:57:35;;;;;;;2.65;2.42;;;5.90;99.90;;;;;;5054439;28;20214;-76
2023/02/11 05:00:04;;;;;;;2.30;2.15;;;5.90;99.90;;;;;;5054007;28;20199;-77
2023/02/11 05:02:31;;;;;;;1.40;1.30;;;5.90;99.90;;;;;;5054399;28;20240;-75
2023/02/11 05:04:58;;;;;;;1.60;0.93;;;5.90;99.90;;;;;;5053727;28;20221;-76
2023/02/11 05:07:25;;;;;;;5.03;4.70;;;5.90;99.90;;;;;;5053680;28;20245;-76
2023/02/11 05:09:52;;;;;;;10.30;5.00;;;5.90;99.90;;;;;;5054338;28;20658;-77
2023/02/11 05:12:19;;;;;;;1.17;1.13;;;5.90;99.90;;;;;;5053579;28;20211;-76
2023/02/11 05:14:46;;;;;;;7.47;6.85;;;5.90;99.90;;;;;;5053861;28;20199;-76
2023/02/11 05:17:14;;;;;;;4.78;2.45;;;5.80;99.90;;;;;;5053463;28;20305;-76
2023/02/11 05:19:42;;;;;;;3.97;3.05;;;5.80;99.90;;;;;;5053963;28;20220;-75
2023/02/11 05:22:09;;;;;;;2.25;1.30;;;5.80;99.90;;;;;;5053379;28;20260;-76
2023/02/11 05:24:36;;;;;;;0.50;0.40;;;5.80;99.90;;;;;;5052542;28;20654;-75
2023/02/11 05:27:03;;;;;;;7.38;5.90;;;5.90;99.90;;;;;;5053803;28;20747;-77
2023/02/11 05:29:30;;;;;;;11.07;4.50;;;5.90;99.90;;;;;;5053427;28;20285;-76
2023/02/11 05:31:58;;;;;;;3.20;3.05;;;5.80;99.90;;;;;;5053359;28;20226;-76
2023/02/11 05:34:26;;;;;;;5.57;4.93;;;5.80;99.90;;;;;;5053350;28;20553;-76
2023/02/11 05:36:53;;;;;;;10.50;4.90;;;5.80;99.90;;;;;;5053411;28;20236;-76
2023/02/11 05:39:20;;;;;;;9.23;4.80;;;5.80;99.90;;;;;;5053623;28;20289;-76
2023/02/11 05:41:46;;;;;;;8.50;7.40;;;5.80;99.90;;;;;;5053303;28;20305;-76
2023/02/11 05:44:13;;;;;;;2.65;2.33;;;5.70;99.90;;;;;;5053380;28;20635;-76
2023/02/11 05:46:40;;;;;;;12.50;6.68;;;5.70;99.90;;;;;;5052903;28;20599;-76
2023/02/11 05:49:07;;;;;;;11.00;7.45;;;5.70;99.90;;;;;;5053619;28;20194;-76
2023/02/11 05:51:35;;;;;;;27.45;6.50;;;5.70;99.90;;;;;;5053307;28;20229;-76
2023/02/11 05:54:02;;;;;;;6.45;5.93;;;5.80;99.90;;;;;;5052710;28;20195;-76
2023/02/11 05:56:29;;;;;;;8.02;3.30;;;5.80;99.90;;;;;;5052754;28;20198;-75
2023/02/11 05:58:58;;;;;;;1.58;1.48;;;5.80;99.90;;;;;;5052971;28;20198;-77
2023/02/11 06:01:24;;;;;;;2.58;2.47;;;5.80;99.90;;;;;;5052607;28;20319;-75
2023/02/11 06:03:51;;;;;;;7.45;6.38;;;5.80;99.90;;;;;;5053309;28;20191;-76
2023/02/11 06:06:18;;;;;;;21.38;9.82;;;5.80;99.90;;;;;;5052676;28;20194;-77
2023/02/11 06:08:46;;;;;;;8.85;4.85;;;5.80;99.90;;;;;;5052694;28;20297;-76
2023/02/11 06:11:15;;;;;;;1.77;1.67;;;5.80;99.90;;;;;;5053003;28;20225;-77
2023/02/11 06:13:42;;;;;;;6.35;5.80;;;5.80;99.90;;;;;;5052901;28;20682;-76
2023/02/11 06:16:09;;;;;;;7.00;5.22;;;5.80;99.90;;;;;;5052513;28;20301;-76
2023/02/11 06:18:36;;;;;;;0.90;0.90;;;5.80;99.90;;;;;;5052401;28;20220;-76
2023/02/11 06:21:07;;;;;;;8.00;6.63;;;5.90;99.90;;;;;;5052821;28;20242;-77
2023/02/11 06:23:33;;;;;;;4.07;3.75;;;5.90;99.90;;;;;;5052902;28;20543;-74
2023/02/11 06:26:04;;;;;;;7.60;3.53;;;5.90;99.90;;;;;;5052322;28;20197;-76
2023/02/11 06:28:31;;;;;;;9.30;5.20;;;5.90;99.90;;;;;;5052166;28;20273;-76
2023/02/11 06:30:59;;;;;;;8.90;5.15;;;5.90;99.90;;;;;;5052128;28;20667;-76
2023/02/11 06:33:25;;;;;;;9.77;7.65;;;5.90;99.90;;;;;;5052853;28;20290;-75
2023/02/11 06:35:52;;;;;;;9.23;5.32;;;5.90;99.90;;;;;;5051937;28;20241;-77
2023/02/11 06:38:19;;;;;;;2.25;2.15;;;5.90;99.90;;;;;;5052335;28;20218;-76
2023/02/11 06:40:48;;;;;;;0.50;0.40;;;5.90;99.90;;;;;;5052149;28;20194;-76
2023/02/11 06:43:16;;;;;;;2.88;1.83;;;6.00;99.90;;;;;;5052337;28;20210;-76
2023/02/11 06:45:43;;;;;;;10.63;6.47;;;6.00;99.90;;;;;;5051835;28;20230;-76
2023/02/11 06:48:10;;;;;;;9.85;4.40;;;6.00;99.90;;;;;;5051770;28;20218;-76
2023/02/11 06:50:38;;;;;;;2.45;2.35;;;6.00;99.90;;;;;;5052311;28;20191;-77
2023/02/11 06:53:04;;;;;;;1.92;1.83;;;6.10;99.90;;;;;;5052621;28;20611;-77
2023/02/11 06:55:31;;;;;;;3.55;3.33;;;6.00;99.90;;;;;;5051666;28;20285;-76
2023/02/11 06:57:58;;;;;;;0.50;0.50;;;6.00;99.90;;;;;;5051912;28;20218;-76
2023/02/11 07:00:27;;;;;;;1.30;1.23;;;6.10;99.90;;;;;;5051661;28;20204;-76
2023/02/11 07:02:54;;;;;;;0.88;0.85;;;6.10;99.90;;;;;;5052044;28;20191;-76
2023/02/11 07:05:21;;;;;;;6.97;3.97;;;6.10;99.90;;;;;;5051631;28;20510;-75
2023/02/11 07:07:48;;;;;;;11.95;7.30;;;6.10;99.90;;;;;;5051788;28;20194;-75
2023/02/11 07:10:15;;;;;;;2.80;1.50;;;6.10;99.90;;;;;;5051477;28;20293;-76
2023/02/11 07:12:42;;;;;;;4.03;2.55;;;6.10;99.90;;;;;;5051318;28;20219;-76
2023/02/11 07:15:09;;;;;;;2.95;2.75;;;6.10;99.90;;;;;;5051483;28;20285;-76
2023/02/11 07:17:37;;;;;;;0.73;0.73;;;6.10;99.90;;;;;;5052108;28;20214;-76
2023/02/11 07:20:05;;;;;;;19.90;6.80;;;6.10;99.90;;;;;;5051724;28;20195;-76
2023/02/11 07:22:33;;;;;;;2.67;2.47;;;6.10;99.90;;;;;;5051137;28;20268;-75
2023/02/11 07:25:00;;;;;;;4.93;3.92;;;6.10;99.90;;;;;;5050976;28;20198;-76
2023/02/11 07:27:27;;;;;;;0.65;0.65;;;6.10;99.90;;;;;;5051480;28;20187;-76
2023/02/11 07:29:54;;;;;;;1.45;1.02;;;6.10;99.90;;;;;;5051881;28;20201;-76
2023/02/11 07:32:20;;;;;;;3.63;2.78;;;6.20;99.90;;;;;;5051663;28;20227;-76
2023/02/11 07:34:49;;;;;;;2.58;2.45;;;6.20;99.90;;;;;;5051658;28;20198;-75
2023/02/11 07:37:15;;;;;;;0.50;0.40;;;6.20;99.90;;;;;;5051358;28;20219;-76
2023/02/11 07:39:42;;;;;;;0.63;0.63;;;6.20;99.90;;;;;;5052232;28;20285;-75
2023/02/11 07:42:09;;;;;;;4.90;4.35;;;6.20;99.90;;;;;;5051626;28;20283;-75
2023/02/11 07:44:36;;;;;;;11.50;5.40;;;6.20;99.90;;;;;;5051771;28;20226;-75
2023/02/11 07:47:03;;;;;;;26.63;9.23;;;6.20;99.90;;;;;;5053360;28;20186;-76
2023/02/11 07:49:30;;;;;;;2.03;1.92;;;6.20;99.90;;;;;;5056309;28;20198;-76
2023/02/11 07:51:58;;;;;;;12.27;3.83;;;6.20;99.90;;;;;;5055287;28;20218;-77
2023/02/11 07:54:25;;;;;;;4.75;2.63;;;6.20;99.90;;;;;;5055634;28;20746;-76
2023/02/11 07:56:53;;;;;;;3.63;3.35;;;6.20;99.90;;;;;;5055675;28;20195;-76
2023/02/11 07:59:19;;;;;;;6.80;5.78;;;6.20;99.90;;;;;;5057273;28;20218;-76
2023/02/11 08:01:46;;;;;;;16.10;10.52;;;6.20;99.90;;;;;;5055235;28;20731;-76
2023/02/11 08:04:13;;;;;;;5.47;4.68;;;6.20;99.90;;;;;;5056188;28;20206;-74
2023/02/11 08:06:42;;;;;;;10.52;7.10;;;6.20;99.90;;;;;;5054839;28;20689;-75
2023/02/11 08:09:14;;;;;;;19.80;11.23;;;6.20;99.90;;;;;;5055892;28;20191;-76
2023/02/11 08:11:41;;;;;;;2.70;2.60;;;6.20;99.90;;;;;;5054801;28;20711;-76
2023/02/11 08:14:09;;;;;;;9.60;6.47;;;6.20;99.90;;;;;;5054693;28;20200;-77
2023/02/11 08:16:38;;;;;;;7.60;6.90;;;6.20;99.90;;;;;;5054887;28;20535;-77
2023/02/11 08:19:07;;;;;;;8.60;6.00;;;6.20;99.90;;;;;;5055108;28;20221;-77
2023/02/11 08:21:34;;;;;;;2.58;1.88;;;6.20;99.90;;;;;;5055081;28;20246;-76
2023/02/11 08:24:02;;;;;;;19.13;6.03;;;6.30;99.90;;;;;;5054655;28;20198;-76
2023/02/11 08:26:33;;;;;;;7.03;2.15;;;6.30;99.90;;;;;;5054872;28;20559;-76
2023/02/11 08:29:01;;;;;;;2.67;2.47;;;6.30;99.90;;;;;;5054440;28;20601;-77
2023/02/11 08:31:31;;;;;;;10.93;5.95;;;6.30;99.90;;;;;;5054635;28;20226;-75
2023/02/11 08:33:59;;;;;;;3.45;3.13;;;6.40;99.90;;;;;;5055229;28;20194;-77
2023/02/11 08:36:27;;;;;;;9.80;6.43;;;6.40;99.90;;;;;;5054929;28;20191;-77
2023/02/11 08:38:55;;;;;;;6.25;2.25;;;6.40;99.90;;;;;;5054835;28;20214;-76
2023/02/11 08:41:22;;;;;;;8.27;2.15;;;6.50;99.90;;;;;;5054296;28;20245;-76
2023/02/11 08:43:50;;;;;;;1.95;1.85;;;6.50;99.90;;;;;;5055095;28;20565;-77
2023/02/11 08:46:19;;;;;;;13.13;4.20;;;6.50;99.90;;;;;;5054741;28;20195;-76
2023/02/11 08:48:47;;;;;;;18.42;5.07;;;6.50;99.90;;;;;;5054781;28;20195;-76
2023/02/11 08:51:17;;;;;;;5.13;3.28;;;6.50;99.90;;;;;;5054700;28;20720;-76
2023/02/11 08:53:44;;;;;;;1.83;1.83;;;6.50;99.90;;;;;;5054045;28;20194;-77
2023/02/11 08:56:11;;;;;;;1.85;1.75;;;6.50;99.90;;;;;;5053889;28;20684;-76
2023/02/11 08:58:38;;;;;;;0.50;0.50;;;6.60;99.90;;;;;;5053905;28;20305;-77
2023/02/11 09:01:11;;;;;;;14.68;4.32;;;6.60;99.90;;;;;;5054918;28;20644;-77
2023/02/11 09:03:37;;;;;;;13.82;5.15;;;6.70;99.90;;;;;;5054380;28;20615;-75
2023/02/11 09:06:06;;;;;;;1.92;0.77;;;6.70;99.90;;;;;;5053745;28;20194;-76
2023/02/11 09:08:35;;;;;;;17.25;6.38;;;6.70;99.90;;;;;;5054757;28;20679;-76
2023/02/11 09:11:02;;;;;;;2.60;2.25;;;6.80;99.90;;;;;;5053603;28;20696;-77
2023/02/11 09:13:29;;;;;;;0.50;0.40;;;6.80;99.90;;;;;;5053755;28;20706;-75
2023/02/11 09:15:56;;;;;;;0.50;0.40;;;6.80;99.90;;;;;;5053204;28;20282;-76
2023/02/11 09:18:24;;;;;;;2.20;2.10;;;6.80;99.90;;;;;;5053711;28;20718;-77
2023/02/11 09:20:51;;;;;;;6.80;2.70;;;6.90;99.90;;;;;;5054289;28;20301;-77
2023/02/11 09:23:18;;;;;;;8.48;5.95;;;6.90;99.90;;;;;;5053709;28;20587;-75
2023/02/11 09:25:45;;;;;;;2.08;1.98;;;7.00;99.90;;;;;;5053723;28;20728;-76
2023/02/11 09:28:12;;;;;;;3.88;2.50;;;7.00;99.90;;;;;;5054065;28;20199;-77
2023/02/11 09:30:39;;;;;;;4.55;2.60;;;6.90;99.90;;;;;;5053224;28;20222;-77
2023/02/11 09:33:07;;;;;;;3.65;3.45;;;7.00;99.90;;;;;;5105753;22;20262;-79
2023/02/11 09:35:35;;;;;;;0.60;0.45;;;7.00;99.90;;;;;;5053961;28;20572;-79
2023/02/11 09:38:02;;;;;;;2.92;2.00;;;7.00;99.90;;;;;;5056344;28;20683;-78
2023/02/11 09:40:29;;;;;;;19.80;8.90;;;7.00;99.90;;;;;;5058213;28;20199;-78
2023/02/11 09:43:03;;;;;;;13.05;6.57;;;7.00;99.90;;;;;;5045094;28;20331;-77
2023/02/11 09:45:32;;;;;;;14.20;7.10;;;6.90;99.90;;;;;;5037702;28;20183;-78
2023/02/11 09:48:02;;;;;;;4.72;4.47;;;7.00;99.90;;;;;;5037064;28;20282;-78
2023/02/11 09:50:34;;;;;;;14.30;6.60;;;7.00;99.90;;;;;;5037167;28;20195;-75
2023/02/11 09:53:05;;;;;;;17.50;8.95;;;7.00;99.90;;;;;;5038107;28;20219;-78
2023/02/11 09:55:36;;;;;;;6.53;5.88;;;7.00;99.90;;;;;;5036018;28;20278;-79
2023/02/11 09:58:07;;;;;;;1.88;1.42;;;7.10;99.90;;;;;;5037908;28;20564;-79
2023/02/11 10:00:41;;;;;;;10.27;5.05;;;7.10;99.90;;;;;;5037070;28;20715;-79
2023/02/11 10:03:37;;;;;;;1.13;1.13;;;7.20;99.90;;;;;;5035795;28;20215;-79
2023/02/11 10:06:19;;;;;;;18.15;4.82;;;7.20;99.90;;;;;;5035110;28;20206;-79
2023/02/11 10:08:56;;;;;;;6.80;6.47;;;7.20;99.90;;;;;;5034942;28;20191;-79
2023/02/11 10:11:30;;;;;;;15.73;9.32;;;7.20;99.90;;;;;;5036822;28;20720;-78
2023/02/11 10:14:04;;;;;;;6.38;2.85;;;7.30;99.90;;;;;;5036244;28;20303;-79
2023/02/11 10:16:51;;;;;;;8.48;6.15;;;7.30;99.90;;;;;;5035062;28;20680;-79
2023/02/11 10:19:40;;;;;;;2.15;1.95;;;7.30;99.90;;;;;;5035548;28;20291;-78
2023/02/11 10:22:12;;;;;;;9.02;5.60;;;7.30;99.90;;;;;;5036139;28;20263;-78
2023/02/11 10:24:44;;;;;;;12.60;9.68;;;7.40;99.90;;;;;;5035691;28;20565;-77
2023/02/11 10:27:17;;;;;;;3.25;2.15;;;7.40;99.90;;;;;;5036590;28;20545;-79
2023/02/11 10:29:49;;;;;;;10.98;7.35;;;7.50;99.90;;;;;;5038215;28;20195;-78
2023/02/11 10:32:29;;;;;;;1.25;1.25;;;7.50;99.90;;;;;;5036483;28;20286;-79
2023/02/11 10:35:01;;;;;;;11.40;6.25;;;7.50;99.90;;;;;;5034060;28;20305;-78
2023/02/11 10:37:28;;;;;;;12.70;8.63;;;7.50;99.90;;;;;;5034974;28;20180;-77
2023/02/11 10:39:56;;;;;;;4.32;4.00;;;7.40;99.90;;;;;;5035387;28;20223;-80
2023/02/11 10:42:23;;;;;;;10.07;2.85;;;7.40;99.90;;;;;;5037640;28;20199;-79
2023/02/11 10:44:57;;;;;;;3.90;3.58;;;7.50;99.90;;;;;;5037230;28;20242;-79
2023/02/11 10:47:28;;;;;;;4.50;3.95;;;7.60;99.90;;;;;;5038880;28;20193;-76
2023/02/11 10:50:02;;;;;;;6.38;5.40;;;7.60;99.90;;;;;;5040939;28;20262;-80
2023/02/11 10:52:31;;;;;;;3.95;3.30;;;7.70;99.90;;;;;;5041512;28;20199;-80
2023/02/11 10:55:03;;;;;;;13.63;6.20;;;7.70;99.90;;;;;;5039669;28;20282;-80
2023/02/11 10:57:34;;;;;;;13.25;5.25;;;7.80;99.90;;;;;;5039751;28;20290;-79
2023/02/11 11:00:20;;;;;;;3.40;1.55;;;7.80;99.90;;;;;;5038631;28;20196;-79
2023/02/11 11:02:54;;;;;;;2.20;2.10;;;7.80;99.90;;;;;;5038231;28;20229;-80
2023/02/11 11:05:25;;;;;;;2.90;2.58;;;7.90;99.90;;;;;;5039042;28;20184;-76
2023/02/11 11:07:54;;;;;;;0.52;0.50;;;7.90;99.90;;;;;;5038483;28;20199;-80
2023/02/11 11:10:47;;;;;;;3.15;2.35;;;8.00;99.90;;;;;;5038548;28;20191;-80
2023/02/11 11:13:30;;;;;;;20.00;8.50;;;8.10;99.90;;;;;;5023531;28;20616;-80
2023/02/11 11:16:25;;;;;;;0.50;0.40;;;8.10;99.90;;;;;;5036822;28;20259;-80
2023/02/11 11:18:53;;;;;;;6.72;5.28;;;8.10;99.90;;;;;;5037992;28;20573;-80
2023/02/11 11:21:23;;;;;;;3.63;3.33;;;8.10;99.90;;;;;;5039143;28;20279;-80
2023/02/11 11:23:56;;;;;;;2.28;2.08;;;8.10;99.90;;;;;;5036960;28;20278;-78
2023/02/11 11:26:26;;;;;;;2.30;1.65;;;8.10;99.90;;;;;;5037071;28;20209;-76
2023/02/11 11:29:02;;;;;;;0.50;0.40;;;8.10;99.90;;;;;;5037331;28;20684;-80
2023/02/11 11:31:34;;;;;;;1.88;1.77;;;8.20;99.90;;;;;;5037791;28;20237;-79
2023/02/11 11:34:05;;;;;;;7.70;4.95;;;8.30;99.90;;;;;;5039598;28;20608;-80
2023/02/11 11:36:38;;;;;;;2.40;0.88;;;8.20;99.90;;;;;;5038593;28;20277;-80
2023/02/11 11:39:20;;;;;;;1.52;1.42;;;8.30;99.90;;;;;;5036473;28;20616;-78
2023/02/11 11:41:56;;;;;;;2.30;0.98;;;8.30;99.90;;;;;;5036747;28;20771;-80
2023/02/11 11:44:28;;;;;;;6.30;4.32;;;8.40;99.90;;;;;;5039050;28;20222;-79
2023/02/11 11:47:21;;;;;;;0.70;0.70;;;8.40;99.90;;;;;;5039580;28;20191;-80
2023/02/11 11:50:01;;;;;;;3.42;2.28;;;8.30;99.90;;;;;;5039082;28;20616;-80
2023/02/11 11:52:39;;;;;;;3.05;2.95;;;8.30;99.90;;;;;;5038324;28;20214;-80
2023/02/11 11:55:14;;;;;;;0.60;0.60;;;8.30;99.90;;;;;;5038299;28;20637;-79
2023/02/11 11:57:42;;;;;;;10.23;5.72;;;8.20;99.90;;;;;;5038708;28;20266;-78
2023/02/11 12:00:16;;;;;;;2.00;1.05;;;8.30;99.90;;;;;;5039233;28;20373;-80
2023/02/11 12:03:16;;;;;;;4.70;2.35;;;8.30;99.90;;;;;;5037571;28;20219;-79
2023/02/11 12:05:52;;;;;;;4.13;3.80;;;8.20;99.90;;;;;;5038017;28;20191;-80
2023/02/11 12:08:26;;;;;;;1.90;1.77;;;8.20;99.90;;;;;;5039024;28;20207;-80
2023/02/11 12:11:07;;;;;;;1.40;1.40;;;8.20;99.90;;;;;;5038475;28;20206;-80
2023/02/11 12:13:54;;;;;;;17.30;5.75;;;8.30;99.90;;;;;;5037001;28;20239;-79
2023/02/11 12:16:31;;;;;;;2.00;1.90;;;8.30;99.90;;;;;;5036423;28;20278;-80
2023/02/11 12:19:23;;;;;;;7.88;2.85;;;8.30;99.90;;;;;;5036615;28;20200;-79
2023/02/11 12:22:00;;;;;;;0.80;0.80;;;8.30;99.90;;;;;;5037320;28;20202;-79
2023/02/11 12:24:49;;;;;;;0.65;0.65;;;8.20;99.90;;;;;;5036307;28;20238;-77
2023/02/11 12:27:23;;;;;;;0.50;0.40;;;8.20;99.90;;;;;;5036614;28;20274;-79
2023/02/11 12:30:03;;;;;;;8.52;5.07;;;8.20;99.90;;;;;;5037729;28;20253;-79
2023/02/11 12:32:39;;;;;;;3.15;2.85;;;8.20;99.90;;;;;;5037682;28;20234;-79
2023/02/11 12:35:28;;;;;;;54.67;8.95;;;8.20;99.90;;;;;;5039572;28;20285;-78
2023/02/11 12:38:20;;;;;;;1.15;1.15;;;8.20;99.90;;;;;;5039873;28;20584;-79
2023/02/11 12:41:01;;;;;;;1.40;1.30;;;8.20;99.90;;;;;;5041335;28;20282;-79
2023/02/11 12:43:34;;;;;;;0.85;0.85;;;8.20;99.90;;;;;;5040305;28;20218;-79
2023/02/11 12:46:34;;;;;;;3.10;1.75;;;8.20;99.90;;;;;;5040958;28;20180;-78
2023/02/11 12:49:30;;;;;;;9.68;3.20;;;8.30;99.90;;;;;;5040635;28;20191;-79
2023/02/11 12:52:20;;;;;;;5.28;4.88;;;8.30;99.90;;;;;;5040904;28;20191;-80
2023/02/11 12:54:54;;;;;;;2.97;2.80;;;8.30;99.90;;;;;;5039995;28;20206;-80
2023/02/11 12:57:24;;;;;;;8.88;1.85;;;8.40;99.90;;;;;;5040427;28;20222;-78
2023/02/11 12:59:58;;;;;;;16.90;8.93;;;8.30;99.90;;;;;;5039431;28;20220;-78
2023/02/11 13:02:34;;;;;;;1.20;1.10;;;8.40;99.90;;;;;;5039534;28;20262;-79
2023/02/11 13:05:08;;;;;;;0.63;0.60;;;8.40;99.90;;;;;;5041439;28;20246;-80
2023/02/11 13:07:40;;;;;;;11.80;6.85;;;8.40;99.90;;;;;;5041439;28;20200;-77
2023/02/11 13:10:22;;;;;;;2.25;2.05;;;8.50;99.90;;;;;;5041243;28;20195;-78
2023/02/11 13:15:36;;;;;;;1.77;1.67;;;8.50;99.90;;;;;;5040330;28;20254;-79
2023/02/11 13:18:13;;;;;;;2.47;1.23;;;8.60;99.90;;;;;;5039609;28;20286;-78
2023/02/11 13:20:45;;;;;;;16.92;5.45;;;8.60;99.90;;;;;;5049174;28;20586;-78
2023/02/11 13:23:20;;;;;;;6.53;6.03;;;8.60;99.90;;;;;;5059841;28;20557;-78